Time;durP1;ratioP1;P1;durP2;ratioP2;P2;SDS_P1;SDS_P2;PMS_P1;PMS_P2;Temp;Humidity;BMP_temperature;BMP_pressure;BME280_temperature;BME280_humidity;BME280_pressure;Samples;Min_cycle;Max_cycle;Signal;HPM_P1;HPM_P2
2021/08/22 00:00:03;;;;;;;8.60;6.10;;;19.10;99.90;;;;;;4146337;28;20668;-74
2021/08/22 00:02:05;;;;;;;11.53;6.00;;;19.10;99.90;;;;;;4146449;28;20657;-75
2021/08/22 00:04:08;;;;;;;8.13;5.67;;;19.00;99.90;;;;;;4145973;28;20235;-75
2021/08/22 00:06:10;;;;;;;8.03;5.57;;;19.00;99.90;;;;;;4144587;28;20231;-77
2021/08/22 00:08:12;;;;;;;9.43;5.97;;;19.00;99.90;;;;;;4141441;28;20210;-76
2021/08/22 00:10:13;;;;;;;7.93;5.17;;;19.00;99.90;;;;;;4145114;28;20215;-76
2021/08/22 00:12:15;;;;;;;7.47;5.13;;;19.00;99.90;;;;;;4144292;28;20265;-75
2021/08/22 00:14:17;;;;;;;7.97;5.03;;;19.00;99.90;;;;;;4145916;28;20210;-76
2021/08/22 00:16:21;;;;;;;7.53;5.43;;;19.00;99.90;;;;;;4143715;28;20325;-75
2021/08/22 00:18:23;;;;;;;7.90;5.70;;;19.00;99.90;;;;;;4138121;28;20211;-73
2021/08/22 00:20:26;;;;;;;8.20;5.43;;;19.00;99.90;;;;;;4144499;28;20206;-75
2021/08/22 00:22:28;;;;;;;9.53;5.60;;;19.00;99.90;;;;;;4146306;28;20260;-75
2021/08/22 00:24:29;;;;;;;8.57;5.43;;;18.90;99.90;;;;;;4146535;28;20222;-75
2021/08/22 00:26:31;;;;;;;6.63;5.20;;;18.90;99.90;;;;;;4140986;28;20237;-73
2021/08/22 00:28:33;;;;;;;7.87;5.20;;;18.90;99.90;;;;;;4146925;28;20216;-72
2021/08/22 00:30:35;;;;;;;8.97;5.30;;;18.90;99.90;;;;;;4141524;28;20217;-72
2021/08/22 00:32:37;;;;;;;10.53;5.27;;;18.90;99.90;;;;;;4146580;28;20223;-72
2021/08/22 00:34:39;;;;;;;7.20;5.00;;;18.90;99.90;;;;;;4146333;28;20222;-72
2021/08/22 00:36:42;;;;;;;7.13;4.97;;;18.90;99.90;;;;;;4146590;28;20612;-73
2021/08/22 00:38:44;;;;;;;7.50;5.17;;;18.90;99.90;;;;;;4144515;28;20221;-74
2021/08/22 00:40:48;;;;;;;9.00;5.53;;;18.90;99.90;;;;;;4145393;28;20214;-73
2021/08/22 00:42:50;;;;;;;7.93;4.80;;;18.90;99.90;;;;;;4142984;28;20214;-73
2021/08/22 00:44:51;;;;;;;7.87;5.20;;;18.90;99.90;;;;;;4146263;28;20210;-74
2021/08/22 00:46:55;;;;;;;7.53;5.20;;;18.90;99.90;;;;;;4146582;28;20246;-72
2021/08/22 00:48:57;;;;;;;8.43;5.07;;;18.90;99.90;;;;;;4143579;28;20222;-73
2021/08/22 00:51:00;;;;;;;6.53;4.73;;;18.90;99.90;;;;;;4144293;28;20210;-73
2021/08/22 00:53:04;;;;;;;7.73;5.47;;;18.80;99.90;;;;;;4145305;28;20661;-72
2021/08/22 00:55:06;;;;;;;7.87;5.30;;;18.90;99.90;;;;;;4146721;28;20231;-72
2021/08/22 00:57:08;;;;;;;8.27;5.47;;;18.80;99.90;;;;;;4147161;28;20220;-72
2021/08/22 00:59:11;;;;;;;10.20;5.87;;;18.80;99.90;;;;;;4149481;28;20214;-72
2021/08/22 01:01:16;;;;;;;8.23;4.83;;;18.80;99.90;;;;;;4148810;28;20201;-74
2021/08/22 01:03:23;;;;;;;9.10;5.10;;;18.80;99.90;;;;;;4149654;28;20579;-72
2021/08/22 01:05:36;;;;;;;6.57;5.00;;;18.80;99.90;;;;;;4144002;28;20603;-71
2021/08/22 01:07:45;;;;;;;7.47;5.27;;;18.80;99.90;;;;;;4147908;28;20217;-75
2021/08/22 01:09:50;;;;;;;7.30;4.90;;;18.70;99.90;;;;;;4144487;28;20217;-73
2021/08/22 01:11:54;;;;;;;7.73;5.27;;;18.70;99.90;;;;;;4148790;28;20655;-73
2021/08/22 01:13:57;;;;;;;8.13;5.23;;;18.70;99.90;;;;;;4148186;28;20214;-74
2021/08/22 01:16:00;;;;;;;8.40;5.67;;;18.70;99.90;;;;;;4149013;28;20253;-73
2021/08/22 01:18:03;;;;;;;7.40;5.17;;;18.70;99.90;;;;;;4145681;28;20606;-74
2021/08/22 01:20:11;;;;;;;9.17;5.67;;;18.70;99.90;;;;;;4148512;28;20220;-74
2021/08/22 01:22:14;;;;;;;7.20;5.60;;;18.70;99.90;;;;;;4148520;28;20209;-76
2021/08/22 01:24:20;;;;;;;7.17;5.07;;;18.70;99.90;;;;;;4149272;28;20208;-76
2021/08/22 01:26:27;;;;;;;7.53;5.73;;;18.70;99.90;;;;;;4145210;28;20236;-74
2021/08/22 01:28:29;;;;;;;7.57;5.70;;;18.70;99.90;;;;;;4147252;28;20302;-74
2021/08/22 01:30:36;;;;;;;9.03;6.20;;;18.70;99.90;;;;;;4145910;28;20208;-74
2021/08/22 01:32:39;;;;;;;8.73;6.10;;;18.70;99.90;;;;;;4147288;28;20679;-74
2021/08/22 01:34:41;;;;;;;9.50;6.10;;;18.70;99.90;;;;;;4148084;28;20234;-73
2021/08/22 01:36:43;;;;;;;8.10;5.40;;;18.70;99.90;;;;;;4148857;28;20239;-73
2021/08/22 01:38:45;;;;;;;8.77;5.90;;;18.70;99.90;;;;;;4145446;28;20609;-74
2021/08/22 01:40:48;;;;;;;7.67;5.60;;;18.70;99.90;;;;;;4147450;28;20215;-75
2021/08/22 01:42:52;;;;;;;7.63;5.40;;;18.70;99.90;;;;;;4148166;28;20210;-74
2021/08/22 01:44:54;;;;;;;8.17;5.73;;;18.70;99.90;;;;;;4148497;28;20209;-76
2021/08/22 01:46:56;;;;;;;9.63;5.90;;;18.70;99.90;;;;;;4147573;28;20219;-75
2021/08/22 01:49:00;;;;;;;8.30;5.60;;;18.80;99.90;;;;;;4148470;28;20227;-74
2021/08/22 01:51:02;;;;;;;8.40;6.03;;;18.70;99.90;;;;;;4148705;28;20224;-75
2021/08/22 01:53:05;;;;;;;8.43;6.03;;;18.70;99.90;;;;;;4147992;28;20213;-74
2021/08/22 01:55:08;;;;;;;7.77;5.60;;;18.70;99.90;;;;;;4144697;28;20240;-75
2021/08/22 01:57:10;;;;;;;8.50;5.63;;;18.70;99.90;;;;;;4145464;28;20249;-77
2021/08/22 01:59:12;;;;;;;7.83;5.73;;;18.70;99.90;;;;;;4147851;28;20262;-74
2021/08/22 02:01:14;;;;;;;8.23;5.87;;;18.70;99.90;;;;;;4147433;28;20286;-74
2021/08/22 02:03:19;;;;;;;9.20;6.03;;;18.70;99.90;;;;;;4147546;28;20217;-73
2021/08/22 02:05:23;;;;;;;7.33;5.43;;;18.70;99.90;;;;;;4144905;28;20655;-73
2021/08/22 02:07:29;;;;;;;7.27;5.47;;;18.70;99.90;;;;;;4148484;28;20698;-72
2021/08/22 02:09:37;;;;;;;9.37;5.97;;;18.70;99.90;;;;;;4147699;28;20653;-74
2021/08/22 02:11:43;;;;;;;8.53;5.40;;;18.70;99.90;;;;;;4148660;28;20223;-73
2021/08/22 02:13:46;;;;;;;8.70;6.20;;;18.60;99.90;;;;;;4139077;28;20217;-73
2021/08/22 02:15:51;;;;;;;8.77;5.50;;;18.60;99.90;;;;;;4148523;28;20295;-74
2021/08/22 02:17:59;;;;;;;6.93;5.40;;;18.60;99.90;;;;;;4141444;28;20240;-74
2021/08/22 02:20:02;;;;;;;8.77;5.83;;;18.60;99.90;;;;;;4147513;28;20206;-74
2021/08/22 02:22:07;;;;;;;13.67;6.00;;;18.60;99.90;;;;;;4148080;28;20209;-75
2021/08/22 02:24:09;;;;;;;8.40;6.07;;;18.60;99.90;;;;;;4147888;28;20205;-74
2021/08/22 02:26:11;;;;;;;8.50;6.07;;;18.60;99.90;;;;;;4147074;28;20659;-73
2021/08/22 02:28:12;;;;;;;9.57;6.03;;;18.60;99.90;;;;;;4145958;28;20212;-75
2021/08/22 02:30:15;;;;;;;8.40;5.70;;;18.60;99.90;;;;;;4143550;28;20218;-73
2021/08/22 02:32:17;;;;;;;10.53;5.73;;;18.60;99.90;;;;;;4147315;28;20224;-74
2021/08/22 02:34:18;;;;;;;8.73;5.97;;;18.60;99.90;;;;;;4147539;28;20217;-73
2021/08/22 02:36:20;;;;;;;8.07;6.10;;;18.60;99.90;;;;;;4147528;28;20235;-73
2021/08/22 02:38:23;;;;;;;9.77;6.70;;;18.60;99.90;;;;;;4147438;28;20206;-74
2021/08/22 02:40:25;;;;;;;8.13;5.90;;;18.60;99.90;;;;;;4144542;28;20213;-75
2021/08/22 02:42:27;;;;;;;8.13;6.00;;;18.60;99.90;;;;;;4147542;28;20262;-74
2021/08/22 02:44:28;;;;;;;8.00;5.90;;;18.60;99.90;;;;;;4142562;28;20229;-73
2021/08/22 02:46:30;;;;;;;7.93;5.50;;;18.60;99.90;;;;;;4146270;28;20238;-75
2021/08/22 02:48:32;;;;;;;7.50;5.50;;;18.60;99.90;;;;;;4146668;28;20206;-74
2021/08/22 02:50:33;;;;;;;8.90;6.07;;;18.60;99.90;;;;;;4147247;28;20208;-74
2021/08/22 02:52:35;;;;;;;9.60;6.47;;;18.60;99.90;;;;;;4147333;28;20222;-75
2021/08/22 02:54:38;;;;;;;9.33;6.13;;;18.60;99.90;;;;;;4141596;28;20223;-77
2021/08/22 02:56:40;;;;;;;8.20;6.00;;;18.60;99.90;;;;;;4144544;28;20234;-77
2021/08/22 02:58:42;;;;;;;8.03;5.90;;;18.60;99.90;;;;;;4145933;28;20776;-77
2021/08/22 03:00:43;;;;;;;10.67;6.20;;;18.60;99.90;;;;;;4144378;28;20259;-77
2021/08/22 03:02:45;;;;;;;8.73;6.23;;;18.60;99.90;;;;;;4144300;28;20212;-77
2021/08/22 03:04:47;;;;;;;7.73;6.10;;;18.50;99.90;;;;;;4146199;28;20625;-77
2021/08/22 03:06:48;;;;;;;8.37;6.10;;;18.50;99.90;;;;;;4147230;28;20223;-77
2021/08/22 03:08:50;;;;;;;8.67;5.93;;;18.40;99.90;;;;;;4147496;28;20641;-76
2021/08/22 03:10:53;;;;;;;8.73;5.93;;;18.40;99.90;;;;;;4147588;28;20653;-77
2021/08/22 03:12:55;;;;;;;9.33;5.83;;;18.40;99.90;;;;;;4138438;28;20209;-77
2021/08/22 03:14:57;;;;;;;9.20;6.13;;;18.30;99.90;;;;;;4137714;28;20266;-75
2021/08/22 03:16:58;;;;;;;8.10;5.83;;;18.30;99.90;;;;;;4146041;28;20252;-75
2021/08/22 03:19:00;;;;;;;8.77;6.23;;;18.30;99.90;;;;;;4146603;28;20211;-77
2021/08/22 03:21:02;;;;;;;8.87;5.90;;;18.20;99.90;;;;;;4145563;28;20210;-77
2021/08/22 03:23:03;;;;;;;8.67;5.60;;;18.20;99.90;;;;;;4141423;28;20214;-77
2021/08/22 03:25:06;;;;;;;7.87;5.53;;;18.20;99.90;;;;;;4145901;28;20232;-77
2021/08/22 03:27:10;;;;;;;10.87;6.30;;;18.10;99.90;;;;;;4146631;28;20247;-77
2021/08/22 03:29:11;;;;;;;9.07;5.80;;;18.10;99.90;;;;;;4146646;28;20213;-76
2021/08/22 03:31:13;;;;;;;8.33;5.87;;;18.10;99.90;;;;;;4131666;28;20267;-76
2021/08/22 03:33:15;;;;;;;9.23;6.13;;;18.00;99.90;;;;;;4146717;28;20750;-77
2021/08/22 03:35:16;;;;;;;10.13;6.17;;;18.00;99.90;;;;;;4145608;28;20267;-77
2021/08/22 03:37:18;;;;;;;9.10;5.90;;;17.90;99.90;;;;;;4146892;28;20232;-77
2021/08/22 03:39:20;;;;;;;9.40;6.30;;;17.90;99.90;;;;;;4144329;28;20212;-77
2021/08/22 03:41:22;;;;;;;8.47;6.03;;;17.90;99.90;;;;;;4147106;28;20213;-77
2021/08/22 03:43:25;;;;;;;7.93;5.97;;;17.90;99.90;;;;;;4146498;28;20219;-77
2021/08/22 03:45:27;;;;;;;8.83;6.13;;;17.80;99.90;;;;;;4171811;23;1051275;-79
2021/08/22 03:47:29;;;;;;;10.63;6.10;;;17.80;99.90;;;;;;4141536;28;20205;-80
2021/08/22 03:49:30;;;;;;;8.93;6.10;;;17.80;99.90;;;;;;4139095;28;20212;-80
2021/08/22 03:51:32;;;;;;;9.37;6.53;;;17.70;99.90;;;;;;4147404;28;20208;-80
2021/08/22 03:53:34;;;;;;;8.13;6.13;;;17.70;99.90;;;;;;4146890;28;20208;-80
2021/08/22 03:55:35;;;;;;;10.13;6.40;;;17.70;99.90;;;;;;4145515;28;20236;-80
2021/08/22 03:57:37;;;;;;;8.07;5.70;;;17.60;99.90;;;;;;4146371;28;20343;-80
2021/08/22 03:59:40;;;;;;;8.40;6.03;;;17.60;99.90;;;;;;4146732;28;20216;-80
2021/08/22 04:01:42;;;;;;;8.57;6.37;;;17.60;99.90;;;;;;4146927;28;20646;-79
2021/08/22 04:03:43;;;;;;;8.10;6.03;;;17.60;99.90;;;;;;4148621;28;20212;-80
2021/08/22 04:05:45;;;;;;;10.43;6.27;;;17.50;99.90;;;;;;4141983;28;20236;-80
2021/08/22 04:07:48;;;;;;;9.57;6.17;;;17.50;99.90;;;;;;4146126;28;20258;-80
2021/08/22 04:09:50;;;;;;;8.10;5.93;;;17.50;99.90;;;;;;4146802;28;20204;-80
2021/08/22 04:11:55;;;;;;;10.67;6.03;;;17.40;99.90;;;;;;4147425;28;20223;-79
2021/08/22 04:13:57;;;;;;;7.77;5.80;;;17.40;99.90;;;;;;4144870;28;20208;-80
2021/08/22 04:16:00;;;;;;;8.43;6.20;;;17.40;99.90;;;;;;4145919;28;20254;-80
2021/08/22 04:18:02;;;;;;;8.60;6.10;;;17.40;99.90;;;;;;4147452;28;20219;-80
2021/08/22 04:20:05;;;;;;;9.57;5.87;;;17.40;99.90;;;;;;4147131;28;20270;-80
2021/08/22 04:22:08;;;;;;;11.07;6.53;;;17.40;99.90;;;;;;4147556;28;20204;-80
2021/08/22 04:24:10;;;;;;;8.70;6.40;;;17.40;99.90;;;;;;4144205;28;20559;-80
2021/08/22 04:26:12;;;;;;;12.60;6.73;;;17.30;99.90;;;;;;4131726;28;20232;-80
2021/08/22 04:28:13;;;;;;;9.13;6.03;;;17.30;99.90;;;;;;4147034;28;20208;-80
2021/08/22 04:30:15;;;;;;;8.23;5.77;;;17.30;99.90;;;;;;4138475;28;20280;-80
2021/08/22 04:32:18;;;;;;;8.17;5.63;;;17.30;99.90;;;;;;4142843;28;20208;-80
2021/08/22 04:34:20;;;;;;;8.90;6.27;;;17.20;99.90;;;;;;4149255;28;20299;-80
2021/08/22 04:36:22;;;;;;;9.93;6.60;;;17.20;99.90;;;;;;4140344;28;20232;-80
2021/08/22 04:38:23;;;;;;;10.57;6.77;;;17.20;99.90;;;;;;4149477;28;20220;-80
2021/08/22 04:40:25;;;;;;;9.47;5.90;;;17.20;99.90;;;;;;4143941;28;20208;-80
2021/08/22 04:42:27;;;;;;;9.73;6.50;;;17.20;99.90;;;;;;4150531;28;20204;-80
2021/08/22 04:44:28;;;;;;;9.03;6.23;;;17.20;99.90;;;;;;4149370;28;20205;-80
2021/08/22 04:46:30;;;;;;;10.57;6.23;;;17.20;99.90;;;;;;4147979;28;20235;-80
2021/08/22 04:48:33;;;;;;;10.57;6.60;;;17.20;99.90;;;;;;4148775;28;20208;-80
2021/08/22 04:50:35;;;;;;;14.23;6.93;;;17.30;99.90;;;;;;4147543;28;20269;-80
2021/08/22 04:52:37;;;;;;;8.77;6.53;;;17.20;99.90;;;;;;4150268;28;20742;-80
2021/08/22 04:54:38;;;;;;;9.30;6.27;;;17.20;99.90;;;;;;4149610;28;20631;-80
2021/08/22 04:56:41;;;;;;;8.40;6.00;;;17.20;99.90;;;;;;4145786;28;20232;-79
2021/08/22 04:58:43;;;;;;;12.50;7.30;;;17.40;99.90;;;;;;4133373;28;20212;-78
2021/08/22 05:00:45;;;;;;;10.47;6.80;;;17.30;99.90;;;;;;4138944;28;20261;-78
2021/08/22 05:02:46;;;;;;;9.63;6.70;;;17.40;99.90;;;;;;4149365;28;20212;-78
2021/08/22 05:04:49;;;;;;;9.13;6.60;;;17.40;99.90;;;;;;4147538;28;20227;-78
2021/08/22 05:06:51;;;;;;;9.50;6.40;;;17.40;99.90;;;;;;4148706;28;20231;-78
2021/08/22 05:08:53;;;;;;;8.70;6.27;;;17.50;99.90;;;;;;4148968;28;20263;-78
2021/08/22 05:10:55;;;;;;;9.17;6.10;;;17.50;99.90;;;;;;4150009;28;20612;-78
2021/08/22 05:12:57;;;;;;;9.27;5.80;;;17.50;99.90;;;;;;4147398;28;20300;-78
2021/08/22 05:14:59;;;;;;;9.57;5.97;;;17.50;99.90;;;;;;4146801;28;20262;-79
2021/08/22 05:17:01;;;;;;;13.07;6.53;;;17.60;99.90;;;;;;4145636;28;20604;-78
2021/08/22 05:19:02;;;;;;;9.53;5.97;;;17.60;99.90;;;;;;4149189;28;20209;-78
2021/08/22 05:21:05;;;;;;;9.43;6.40;;;17.60;99.90;;;;;;4149085;28;20204;-78
2021/08/22 05:23:07;;;;;;;10.30;6.63;;;17.60;99.90;;;;;;4149776;28;20267;-78
2021/08/22 05:25:09;;;;;;;8.63;6.40;;;17.70;99.90;;;;;;4147702;28;20219;-78
2021/08/22 05:27:11;;;;;;;9.63;6.50;;;17.70;99.90;;;;;;4146655;28;20216;-78
2021/08/22 05:29:13;;;;;;;9.00;6.30;;;17.70;99.90;;;;;;4157620;28;20207;-78
2021/08/22 05:31:14;;;;;;;10.53;6.20;;;17.70;99.90;;;;;;4144761;28;20212;-78
2021/08/22 05:33:16;;;;;;;8.17;6.10;;;17.80;99.90;;;;;;4149353;28;20205;-78
2021/08/22 05:35:18;;;;;;;9.57;5.70;;;17.80;99.90;;;;;;4148143;28;20665;-78
2021/08/22 05:37:21;;;;;;;8.00;5.83;;;17.80;99.90;;;;;;4147466;28;20685;-78
2021/08/22 05:39:22;;;;;;;7.97;5.73;;;17.90;99.90;;;;;;4145020;28;20209;-78
2021/08/22 05:41:24;;;;;;;9.07;5.47;;;17.90;99.90;;;;;;4149088;28;20220;-78
2021/08/22 05:43:26;;;;;;;9.40;5.53;;;17.90;99.90;;;;;;4148709;28;20731;-78
2021/08/22 05:45:28;;;;;;;8.93;5.30;;;18.10;99.90;;;;;;4148595;28;20227;-78
2021/08/22 05:47:29;;;;;;;7.60;5.60;;;18.00;99.90;;;;;;4147638;28;20204;-78
2021/08/22 05:49:31;;;;;;;8.07;5.23;;;18.10;99.90;;;;;;4148943;28;20593;-78
2021/08/22 05:51:33;;;;;;;7.90;5.60;;;18.10;99.90;;;;;;4149347;28;20219;-78
2021/08/22 05:53:40;;;;;;;6.63;4.70;;;18.20;99.90;;;;;;4149171;28;20216;-78
2021/08/22 05:55:42;;;;;;;10.43;5.27;;;18.30;99.90;;;;;;4149113;28;20244;-78
2021/08/22 05:57:43;;;;;;;7.17;5.07;;;18.30;99.90;;;;;;4136200;28;20237;-78
2021/08/22 05:59:45;;;;;;;6.23;4.63;;;18.40;99.90;;;;;;4131986;28;20305;-78
2021/08/22 06:01:47;;;;;;;6.33;4.93;;;18.40;99.90;;;;;;4144575;28;20720;-78
2021/08/22 06:03:48;;;;;;;6.07;4.87;;;18.50;99.90;;;;;;4148242;28;20214;-78
2021/08/22 06:05:51;;;;;;;7.83;5.20;;;18.50;99.90;;;;;;4143829;28;20365;-78
2021/08/22 06:07:52;;;;;;;7.03;5.03;;;18.60;99.90;;;;;;4147834;28;20245;-78
2021/08/22 06:09:55;;;;;;;7.80;5.60;;;18.70;99.90;;;;;;4148456;28;20240;-79
2021/08/22 06:11:57;;;;;;;7.77;5.20;;;18.80;99.90;;;;;;4148599;28;20215;-78
2021/08/22 06:13:59;;;;;;;6.40;4.67;;;18.90;99.90;;;;;;4147041;28;20209;-78
2021/08/22 06:16:01;;;;;;;6.27;4.77;;;19.00;99.90;;;;;;4146736;28;20235;-78
2021/08/22 06:18:03;;;;;;;6.67;5.17;;;19.00;99.90;;;;;;4148095;28;20240;-78
2021/08/22 06:20:06;;;;;;;7.43;5.00;;;19.10;99.90;;;;;;4148160;28;20212;-78
2021/08/22 06:22:07;;;;;;;7.53;5.27;;;19.20;99.90;;;;;;4148736;28;20700;-79
2021/08/22 06:24:09;;;;;;;7.00;4.93;;;19.20;99.90;;;;;;4133269;28;20596;-78
2021/08/22 06:26:12;;;;;;;6.60;4.93;;;19.30;99.90;;;;;;4146718;28;20600;-78
2021/08/22 06:28:14;;;;;;;6.73;4.97;;;19.30;99.90;;;;;;4147893;28;20203;-78
2021/08/22 06:30:16;;;;;;;5.83;4.43;;;19.30;99.90;;;;;;4147762;28;20710;-78
2021/08/22 06:32:18;;;;;;;6.63;4.67;;;19.40;99.90;;;;;;4145562;28;20690;-78
2021/08/22 06:34:19;;;;;;;10.70;4.87;;;19.40;99.90;;;;;;4148653;28;20221;-79
2021/08/22 06:36:22;;;;;;;6.57;4.60;;;19.40;99.90;;;;;;4147288;28;20235;-78
2021/08/22 06:38:23;;;;;;;6.67;4.50;;;19.40;99.90;;;;;;4147425;28;20648;-78
2021/08/22 06:40:25;;;;;;;6.80;5.00;;;19.50;99.90;;;;;;4146714;28;20216;-78
2021/08/22 06:42:28;;;;;;;6.60;4.90;;;19.50;99.90;;;;;;4137954;28;20211;-78
2021/08/22 06:44:30;;;;;;;6.57;4.93;;;19.50;99.90;;;;;;4148735;28;20204;-78
2021/08/22 06:46:32;;;;;;;7.77;5.27;;;19.50;99.90;;;;;;4146575;28;20245;-78
2021/08/22 06:48:34;;;;;;;6.50;4.60;;;19.50;99.90;;;;;;4147241;28;20221;-78
2021/08/22 06:50:36;;;;;;;6.13;4.93;;;19.50;99.90;;;;;;4148757;28;20213;-79
2021/08/22 06:52:37;;;;;;;8.90;4.70;;;19.60;99.90;;;;;;4145889;28;20242;-78
2021/08/22 06:54:41;;;;;;;6.80;4.73;;;19.60;99.90;;;;;;4148713;28;20208;-78
2021/08/22 06:56:43;;;;;;;8.43;4.80;;;19.60;99.90;;;;;;4145763;28;20325;-78
2021/08/22 06:58:46;;;;;;;9.63;5.00;;;19.60;99.90;;;;;;4145759;28;20712;-78
2021/08/22 07:00:47;;;;;;;6.20;4.73;;;19.60;99.90;;;;;;4141477;28;20242;-78
2021/08/22 07:02:49;;;;;;;7.33;5.10;;;19.60;99.90;;;;;;4141988;28;20217;-78
2021/08/22 07:04:51;;;;;;;6.20;4.73;;;19.60;99.90;;;;;;4149683;28;20212;-79
2021/08/22 07:06:52;;;;;;;7.60;4.57;;;19.60;99.90;;;;;;4147956;28;20987;-79
2021/08/22 07:08:55;;;;;;;7.40;5.20;;;19.60;99.90;;;;;;4140189;28;20679;-78
2021/08/22 07:10:57;;;;;;;7.83;4.37;;;19.60;99.90;;;;;;4141204;28;20265;-79
2021/08/22 07:12:59;;;;;;;6.80;5.00;;;19.60;99.90;;;;;;4148817;28;20206;-78
2021/08/22 07:15:03;;;;;;;5.97;4.70;;;19.70;99.90;;;;;;4148323;28;20738;-78
2021/08/22 07:17:05;;;;;;;6.67;5.03;;;19.80;99.90;;;;;;4146549;28;20662;-78
2021/08/22 07:19:07;;;;;;;6.90;4.90;;;19.80;99.90;;;;;;4136878;28;20639;-78
2021/08/22 07:21:09;;;;;;;7.30;5.20;;;19.80;99.90;;;;;;4148239;28;20245;-78
2021/08/22 07:23:10;;;;;;;7.33;4.60;;;19.80;99.90;;;;;;4148634;28;20215;-79
2021/08/22 07:25:13;;;;;;;6.23;4.73;;;19.80;99.90;;;;;;4147516;28;20290;-78
2021/08/22 07:27:15;;;;;;;7.47;4.97;;;19.90;99.90;;;;;;4148532;28;20214;-78
2021/08/22 07:29:16;;;;;;;6.87;4.77;;;19.90;99.90;;;;;;4149917;28;20225;-78
2021/08/22 07:31:20;;;;;;;7.70;5.40;;;20.00;99.90;;;;;;4148893;28;20739;-78
2021/08/22 07:33:21;;;;;;;7.83;5.10;;;20.00;99.90;;;;;;4151674;28;20261;-78
2021/08/22 07:35:23;;;;;;;7.77;5.30;;;20.10;99.90;;;;;;4154353;28;20223;-78
2021/08/22 07:37:25;;;;;;;6.90;4.77;;;20.10;99.90;;;;;;4156264;28;20234;-78
2021/08/22 07:39:26;;;;;;;6.27;5.23;;;20.20;99.90;;;;;;4152152;28;20211;-78
2021/08/22 07:41:28;;;;;;;7.33;5.07;;;20.30;99.90;;;;;;4151838;28;20212;-78
2021/08/22 07:43:30;;;;;;;6.53;5.03;;;20.30;99.90;;;;;;4144043;28;20215;-78
2021/08/22 07:45:32;;;;;;;7.20;4.73;;;20.40;99.90;;;;;;4143897;28;20270;-79
2021/08/22 07:47:35;;;;;;;8.07;5.00;;;20.40;99.90;;;;;;4150374;28;20204;-78
2021/08/22 07:49:36;;;;;;;7.60;4.97;;;20.40;99.90;;;;;;4147247;28;20257;-78
2021/08/22 07:51:38;;;;;;;7.77;5.10;;;20.50;99.90;;;;;;4148915;28;20212;-78
2021/08/22 07:53:40;;;;;;;8.10;5.30;;;20.50;99.90;;;;;;4132012;28;20634;-78
2021/08/22 07:55:41;;;;;;;5.93;4.50;;;20.50;99.90;;;;;;4141061;28;20293;-78
2021/08/22 07:57:43;;;;;;;6.70;4.77;;;20.50;99.90;;;;;;4148747;28;21546;-78
2021/08/22 07:59:45;;;;;;;6.93;5.20;;;20.60;99.90;;;;;;4148268;28;20508;-78
2021/08/22 08:01:47;;;;;;;7.93;4.83;;;20.60;99.90;;;;;;4146118;28;20211;-78
2021/08/22 08:03:50;;;;;;;6.03;4.40;;;20.60;99.90;;;;;;4148738;28;20215;-78
2021/08/22 08:05:53;;;;;;;6.57;4.80;;;20.60;99.90;;;;;;4148825;28;20457;-78
2021/08/22 08:07:55;;;;;;;7.33;5.30;;;20.70;99.90;;;;;;4150907;28;20207;-79
2021/08/22 08:09:57;;;;;;;7.30;5.03;;;20.70;99.90;;;;;;4149675;28;20222;-79
2021/08/22 08:11:59;;;;;;;7.93;5.20;;;20.70;99.90;;;;;;4151410;28;20200;-78
2021/08/22 08:14:00;;;;;;;6.10;4.93;;;20.70;99.90;;;;;;4153599;28;20195;-78
2021/08/22 08:16:02;;;;;;;6.80;5.20;;;20.70;99.90;;;;;;4159360;28;20677;-78
2021/08/22 08:18:04;;;;;;;6.30;5.00;;;20.70;99.90;;;;;;4156763;28;20238;-78
2021/08/22 08:20:08;;;;;;;6.50;4.70;;;20.70;99.90;;;;;;4157779;28;20218;-78
2021/08/22 08:22:10;;;;;;;8.17;5.17;;;20.70;99.90;;;;;;4149964;28;20207;-78
2021/08/22 08:24:12;;;;;;;7.03;5.07;;;20.70;99.90;;;;;;4150467;28;20214;-80
2021/08/22 08:26:14;;;;;;;7.73;4.90;;;20.70;99.90;;;;;;4152170;28;20251;-79
2021/08/22 08:28:16;;;;;;;9.10;5.10;;;20.70;99.90;;;;;;4149057;28;20291;-80
2021/08/22 08:30:18;;;;;;;7.47;5.47;;;20.70;99.90;;;;;;4151355;28;20216;-80
2021/08/22 08:32:20;;;;;;;7.20;4.80;;;20.80;99.90;;;;;;4151592;28;20596;-80
2021/08/22 08:34:21;;;;;;;6.93;4.83;;;20.80;99.90;;;;;;4148706;28;20212;-79
2021/08/22 08:36:24;;;;;;;6.63;5.30;;;20.90;99.90;;;;;;4148436;28;20663;-78
2021/08/22 08:38:26;;;;;;;11.00;5.47;;;20.90;99.90;;;;;;4148308;28;20262;-80
2021/08/22 08:40:28;;;;;;;6.87;5.17;;;21.00;99.90;;;;;;4149087;28;20270;-80
2021/08/22 08:42:31;;;;;;;7.27;5.30;;;21.10;99.90;;;;;;4151487;28;20750;-78
2021/08/22 08:44:33;;;;;;;7.47;5.43;;;21.20;99.90;;;;;;4148714;28;20224;-78
2021/08/22 08:46:37;;;;;;;7.10;5.37;;;21.30;99.90;;;;;;4151969;28;20240;-79
2021/08/22 08:48:40;;;;;;;6.70;4.80;;;21.40;99.90;;;;;;4149575;28;20299;-78
2021/08/22 08:50:43;;;;;;;7.20;5.30;;;21.50;99.90;;;;;;4148687;28;20215;-79
2021/08/22 08:52:50;;;;;;;8.87;5.43;;;21.60;99.90;;;;;;4147610;28;20216;-79
2021/08/22 08:54:53;;;;;;;7.43;5.60;;;21.70;99.90;;;;;;4149660;28;20211;-79
2021/08/22 08:56:55;;;;;;;6.47;5.30;;;21.70;99.90;;;;;;4150193;28;20240;-80
2021/08/22 08:58:58;;;;;;;5.47;4.60;;;21.80;99.90;;;;;;4149025;28;20296;-79
2021/08/22 09:01:00;;;;;;;6.83;5.17;;;21.90;99.90;;;;;;4150249;28;20214;-79
2021/08/22 09:03:02;;;;;;;6.33;4.80;;;22.00;99.90;;;;;;4135048;28;20215;-79
2021/08/22 09:05:44;;;;;;;6.90;4.70;;;22.10;99.90;;;;;;4150053;28;20282;-79
2021/08/22 09:08:15;;;;;;;7.30;4.93;;;22.20;99.90;;;;;;4099059;29;20672;-79
2021/08/22 09:11:00;;;;;;;7.23;5.13;;;22.20;99.90;;;;;;4144412;28;20208;-79
2021/08/22 09:13:54;;;;;;;7.33;5.13;;;22.30;99.90;;;;;;4152442;28;20204;-79
2021/08/22 09:16:38;;;;;;;6.87;5.30;;;22.40;99.90;;;;;;4072895;29;20237;-79
2021/08/22 09:19:38;;;;;;;7.73;5.03;;;22.40;99.90;;;;;;4081307;29;20232;-79
2021/08/22 09:22:29;;;;;;;6.90;4.70;;;22.40;99.90;;;;;;4138221;28;20683;-79
2021/08/22 09:25:07;;;;;;;6.90;4.57;;;22.50;99.90;;;;;;4148675;28;20218;-79
2021/08/22 09:27:58;;;;;;;8.03;4.73;;;22.60;99.90;;;;;;4148344;28;20217;-79
2021/08/22 09:30:35;;;;;;;6.40;4.63;;;22.60;99.70;;;;;;4145651;28;20238;-79
2021/08/22 09:33:19;;;;;;;5.43;4.40;;;22.60;98.60;;;;;;4149925;28;20217;-79
2021/08/22 09:36:12;;;;;;;5.97;4.50;;;22.60;98.50;;;;;;4150554;28;20229;-79
2021/08/22 09:39:00;;;;;;;6.50;4.17;;;22.70;98.90;;;;;;4153427;28;20257;-79
2021/08/22 09:41:50;;;;;;;7.73;4.20;;;22.70;98.10;;;;;;4151239;28;20266;-80
2021/08/22 09:44:29;;;;;;;6.53;4.17;;;22.70;98.20;;;;;;4151326;28;20212;-80
2021/08/22 09:47:04;;;;;;;8.47;4.20;;;22.80;98.60;;;;;;4151241;28;20238;-81
2021/08/22 09:49:48;;;;;;;5.07;3.87;;;22.80;98.30;;;;;;4149595;28;20213;-81
2021/08/22 09:52:39;;;;;;;6.77;4.57;;;22.90;98.30;;;;;;4152769;28;20589;-81
2021/08/22 09:55:19;;;;;;;6.60;4.57;;;22.90;98.00;;;;;;4148740;28;20261;-79
2021/08/22 09:57:57;;;;;;;5.67;4.03;;;23.00;98.10;;;;;;4152381;28;20206;-81
2021/08/22 10:00:25;;;;;;;4.97;3.97;;;23.00;97.90;;;;;;4147145;28;20634;-81
2021/08/22 10:03:13;;;;;;;4.60;3.63;;;23.00;97.50;;;;;;4148658;28;20664;-81
2021/08/22 10:05:38;;;;;;;6.27;4.03;;;22.90;97.60;;;;;;4146837;28;20218;-81
2021/08/22 10:07:51;;;;;;;5.63;4.07;;;23.00;97.40;;;;;;4150384;28;20210;-81
2021/08/22 10:09:57;;;;;;;4.50;3.70;;;22.90;97.60;;;;;;4148174;28;20210;-81
2021/08/22 10:12:01;;;;;;;6.30;4.07;;;22.90;97.90;;;;;;4145594;28;20307;-81
2021/08/22 10:14:02;;;;;;;5.37;4.23;;;22.90;98.30;;;;;;4144607;28;20657;-81
2021/08/22 10:16:06;;;;;;;6.03;4.00;;;22.80;98.60;;;;;;4145970;28;20270;-81
2021/08/22 10:18:08;;;;;;;4.97;3.80;;;22.80;98.20;;;;;;4150727;28;20219;-81
2021/08/22 10:20:11;;;;;;;5.07;3.73;;;22.80;98.20;;;;;;4150474;28;20209;-81
2021/08/22 10:22:13;;;;;;;5.40;4.10;;;22.70;98.40;;;;;;4151581;28;20237;-81
2021/08/22 10:24:48;;;;;;;4.53;3.70;;;22.70;98.90;;;;;;4149238;28;20218;-81
2021/08/22 10:26:56;;;;;;;4.87;3.60;;;22.70;98.10;;;;;;4148211;28;20228;-81
2021/08/22 10:29:06;;;;;;;4.50;3.50;;;22.60;98.10;;;;;;4147012;28;20213;-82
2021/08/22 10:31:09;;;;;;;4.60;3.43;;;22.60;98.40;;;;;;4147219;28;20300;-81
2021/08/22 10:33:16;;;;;;;6.13;3.80;;;22.60;97.90;;;;;;4147082;28;20217;-82
2021/08/22 10:35:21;;;;;;;6.77;3.40;;;22.60;98.00;;;;;;4145038;28;20210;-81
2021/08/22 10:37:33;;;;;;;4.40;3.37;;;22.60;97.60;;;;;;4144020;28;20216;-82
2021/08/22 10:39:34;;;;;;;5.37;3.60;;;22.60;97.90;;;;;;4146087;28;20280;-82
2021/08/22 10:41:36;;;;;;;5.73;3.40;;;22.70;97.90;;;;;;4145568;28;20213;-81
2021/08/22 10:43:40;;;;;;;5.57;3.23;;;22.70;97.80;;;;;;4148174;28;20536;-81
2021/08/22 10:45:43;;;;;;;4.43;3.50;;;22.80;97.70;;;;;;4146427;28;20635;-81
2021/08/22 10:47:46;;;;;;;4.57;3.33;;;22.90;98.10;;;;;;4148980;28;20273;-80
2021/08/22 10:50:00;;;;;;;6.83;3.67;;;22.90;97.70;;;;;;4145546;28;20210;-81
2021/08/22 10:52:21;;;;;;;4.67;3.40;;;22.90;97.50;;;;;;4147065;28;20268;-80